EAA8460 SBSP-SBGO
Flight info
| Callsign | EAA8460 |
|---|---|
| Flight time | N/A |
| Altitude | 36000 |
| Route | GERTU UZ25 PUGOR/N0457F380 UZ25 CORVO |
| Aircraft | A320/M-SDE3FGHIRWY/LB1 |
Departure
| Time | 2026-05-04 17:16 |
|---|---|
| Airport | Congonhas–Deputado Freitas Nobre Airport (SBSP) |
Arrival
| Time | N/A |
|---|---|
| Airport | Santa Genoveva International Airport (SBGO) |
| Time | Latitude | Longitude | Altitude | Speed | Heading |
|---|---|---|---|---|---|
| 2026-05-04 17:07 | -23.62600 | -46.65906 | 2601 ft | 0 kts | 237° |
| 2026-05-04 17:10 | -23.62590 | -46.65888 | 2601 ft | 2 kts | 237° |
| 2026-05-04 17:11 | -23.62580 | -46.65872 | 2601 ft | 2 kts | 237° |
| 2026-05-04 17:11 | -23.62571 | -46.65857 | 2601 ft | 3 kts | 243° |
| 2026-05-04 17:11 | -23.62571 | -46.65822 | 2602 ft | 3 kts | 313° |
| 2026-05-04 17:12 | -23.62578 | -46.65814 | 2602 ft | 0 kts | 334° |
| 2026-05-04 17:12 | -23.62564 | -46.65846 | 2601 ft | 2 kts | 272° |
| 2026-05-04 17:13 | -23.62329 | -46.65981 | 2600 ft | 41 kts | 328° |
| 2026-05-04 17:14 | -23.62106 | -46.66131 | 2590 ft | 14 kts | 351° |
| 2026-05-04 17:14 | -23.62051 | -46.66068 | 2595 ft | 8 kts | 117° |
| 2026-05-04 17:14 | -23.62094 | -46.66044 | 2594 ft | 0 kts | 149° |
| 2026-05-04 17:16 | -23.62470 | -46.65770 | 2604 ft | 109 kts | 148° |
| 2026-05-04 17:16 | -23.65490 | -46.64175 | 4330 ft | 178 kts | 186° |
| 2026-05-04 17:17 | -23.66749 | -46.64310 | 4995 ft | 187 kts | 186° |
| 2026-05-04 17:17 | -23.70883 | -46.64554 | 7019 ft | 204 kts | 185° |
| 2026-05-04 17:18 | -23.72287 | -46.64584 | 7764 ft | 201 kts | 184° |
| 2026-05-04 17:18 | -23.75163 | -46.64572 | 8953 ft | 209 kts | 182° |
| 2026-05-04 17:19 | -23.78031 | -46.64452 | 10261 ft | 210 kts | 180° |
| 2026-05-04 17:19 | -23.80977 | -46.64226 | 11517 ft | 208 kts | 179° |
| 2026-05-04 17:20 | -23.83910 | -46.63895 | 12579 ft | 219 kts | 177° |
| 2026-05-04 17:20 | -23.86866 | -46.63456 | 13940 ft | 212 kts | 175° |
| 2026-05-04 17:20 | -23.88356 | -46.63197 | 14323 ft | 222 kts | 175° |
| 2026-05-04 17:21 | -23.91399 | -46.62590 | 15459 ft | 218 kts | 173° |
| 2026-05-04 17:21 | -23.92709 | -46.62294 | 15832 ft | 224 kts | 173° |